sensor_id;sensor_type;location;lat;lon;timestamp;pressure;altitude;pressure_sealevel;temperature;humidity
47530;BME280;33272;51.922;7.730;2023-04-30T00:00:53;144051.47;;;6.25;100.00
47530;BME280;33272;51.922;7.730;2023-04-30T00:03:20;144040.06;;;6.20;100.00
47530;BME280;33272;51.922;7.730;2023-04-30T00:05:49;144030.00;;;6.16;100.00
47530;BME280;33272;51.922;7.730;2023-04-30T00:08:16;144023.66;;;6.14;100.00
47530;BME280;33272;51.922;7.730;2023-04-30T00:10:44;144017.34;;;6.11;100.00
47530;BME280;33272;51.922;7.730;2023-04-30T00:13:12;144011.06;;;6.09;100.00
47530;BME280;33272;51.922;7.730;2023-04-30T00:15:39;143994.63;;;6.02;100.00
47530;BME280;33272;51.922;7.730;2023-04-30T00:18:06;143982.03;;;5.97;100.00
47530;BME280;33272;51.922;7.730;2023-04-30T00:20:33;143974.44;;;5.94;100.00
47530;BME280;33272;51.922;7.730;2023-04-30T00:23:00;143961.75;;;5.89;100.00
47530;BME280;33272;51.922;7.730;2023-04-30T00:25:28;143952.94;;;5.85;100.00
47530;BME280;33272;51.922;7.730;2023-04-30T00:27:57;143941.59;;;5.80;100.00
47530;BME280;33272;51.922;7.730;2023-04-30T00:30:25;143932.75;;;5.77;100.00
47530;BME280;33272;51.922;7.730;2023-04-30T00:32:52;143918.88;;;5.71;100.00
47530;BME280;33272;51.922;7.730;2023-04-30T00:35:19;143913.81;;;5.69;100.00
47530;BME280;33272;51.922;7.730;2023-04-30T00:37:46;143903.72;;;5.65;100.00
47530;BME280;33272;51.922;7.730;2023-04-30T00:40:13;143897.41;;;5.63;100.00
47530;BME280;33272;51.922;7.730;2023-04-30T00:42:40;143887.31;;;5.58;100.00
47530;BME280;33272;51.922;7.730;2023-04-30T00:45:08;143884.75;;;5.57;100.00
47530;BME280;33272;51.922;7.730;2023-04-30T00:47:37;143884.75;;;5.57;100.00
47530;BME280;33272;51.922;7.730;2023-04-30T00:50:06;143888.56;;;5.59;100.00
47530;BME280;33272;51.922;7.730;2023-04-30T00:52:35;143883.50;;;5.57;100.00
47530;BME280;33272;51.922;7.730;2023-04-30T00:55:02;143881.00;;;5.56;100.00
47530;BME280;33272;51.922;7.730;2023-04-30T00:57:29;143875.94;;;5.54;100.00
47530;BME280;33272;51.922;7.730;2023-04-30T00:59:57;143869.63;;;5.51;100.00
47530;BME280;33272;51.922;7.730;2023-04-30T01:02:24;143864.59;;;5.49;100.00
47530;BME280;33272;51.922;7.730;2023-04-30T01:04:52;143862.03;;;5.48;100.00
47530;BME280;33272;51.922;7.730;2023-04-30T01:07:20;143859.53;;;5.47;100.00
47530;BME280;33272;51.922;7.730;2023-04-30T01:09:47;143848.19;;;5.43;100.00
47530;BME280;33272;51.922;7.730;2023-04-30T01:12:20;143843.13;;;5.41;100.00
47530;BME280;33272;51.922;7.730;2023-04-30T01:14:59;143831.81;;;5.36;100.00
47530;BME280;33272;51.922;7.730;2023-04-30T01:17:33;143816.66;;;5.30;100.00
47530;BME280;33272;51.922;7.730;2023-04-30T01:20:04;143807.78;;;5.26;100.00
47530;BME280;33272;51.922;7.730;2023-04-30T01:22:42;143795.19;;;5.21;100.00
47530;BME280;33272;51.922;7.730;2023-04-30T01:25:34;143785.13;;;5.17;100.00
47530;BME280;33272;51.922;7.730;2023-04-30T01:28:05;143776.25;;;5.14;100.00
47530;BME280;33272;51.922;7.730;2023-04-30T01:30:34;143771.25;;;5.11;100.00
47530;BME280;33272;51.922;7.730;2023-04-30T01:33:01;143759.84;;;5.07;100.00
47530;BME280;33272;51.922;7.730;2023-04-30T01:38:44;143739.72;;;4.99;100.00
47530;BME280;33272;51.922;7.730;2023-04-30T01:41:21;143732.13;;;4.96;100.00
47530;BME280;33272;51.922;7.730;2023-04-30T01:44:11;143724.56;;;4.93;100.00
47530;BME280;33272;51.922;7.730;2023-04-30T01:46:42;143727.06;;;4.94;100.00
47530;BME280;33272;51.922;7.730;2023-04-30T01:49:18;143720.75;;;4.91;100.00
47530;BME280;33272;51.922;7.730;2023-04-30T01:51:46;143715.75;;;4.89;100.00
47530;BME280;33272;51.922;7.730;2023-04-30T01:54:22;143708.19;;;4.86;100.00
47530;BME280;33272;51.922;7.730;2023-04-30T01:57:00;143699.34;;;4.82;100.00
47530;BME280;33272;51.922;7.730;2023-04-30T01:59:32;143691.78;;;4.79;100.00
47530;BME280;33272;51.922;7.730;2023-04-30T02:02:00;143679.16;;;4.74;100.00
47530;BME280;33272;51.922;7.730;2023-04-30T02:04:27;143670.34;;;4.71;100.00
47530;BME280;33272;51.922;7.730;2023-04-30T02:06:54;143661.53;;;4.67;100.00
47530;BME280;33272;51.922;7.730;2023-04-30T02:09:23;143656.47;;;4.65;100.00
47530;BME280;33272;51.922;7.730;2023-04-30T02:11:50;143652.69;;;4.63;100.00
47530;BME280;33272;51.922;7.730;2023-04-30T02:14:17;143646.38;;;4.61;100.00
47530;BME280;33272;51.922;7.730;2023-04-30T02:16:45;143645.13;;;4.60;100.00
47530;BME280;33272;51.922;7.730;2023-04-30T02:19:12;143640.06;;;4.58;100.00
47530;BME280;33272;51.922;7.730;2023-04-30T02:21:39;143631.25;;;4.55;100.00
47530;BME280;33272;51.922;7.730;2023-04-30T02:24:06;143626.19;;;4.53;100.00
47530;BME280;33272;51.922;7.730;2023-04-30T02:26:33;143623.69;;;4.52;100.00
47530;BME280;33272;51.922;7.730;2023-04-30T02:29:00;143617.38;;;4.49;100.00
47530;BME280;33272;51.922;7.730;2023-04-30T02:31:27;143616.13;;;4.49;100.00
47530;BME280;33272;51.922;7.730;2023-04-30T02:33:56;143608.56;;;4.46;100.00
47530;BME280;33272;51.922;7.730;2023-04-30T02:36:23;143607.31;;;4.45;100.00
47530;BME280;33272;51.922;7.730;2023-04-30T02:38:50;143598.47;;;4.41;100.00
47530;BME280;33272;51.922;7.730;2023-04-30T02:41:17;143590.91;;;4.38;100.00
47530;BME280;33272;51.922;7.730;2023-04-30T02:43:44;143585.88;;;4.36;100.00
47530;BME280;33272;51.922;7.730;2023-04-30T02:46:10;143583.34;;;4.35;100.00
47530;BME280;33272;51.922;7.730;2023-04-30T02:48:37;143579.53;;;4.34;100.00
47530;BME280;33272;51.922;7.730;2023-04-30T02:51:06;143574.50;;;4.32;100.00
47530;BME280;33272;51.922;7.730;2023-04-30T02:53:33;143564.41;;;4.28;100.00
47530;BME280;33272;51.922;7.730;2023-04-30T02:56:00;143555.59;;;4.24;100.00
47530;BME280;33272;51.922;7.730;2023-04-30T02:58:27;143546.78;;;4.21;100.00
47530;BME280;33272;51.922;7.730;2023-04-30T03:00:54;143548.03;;;4.21;100.00
47530;BME280;33272;51.922;7.730;2023-04-30T03:03:21;143553.09;;;4.23;100.00
47530;BME280;33272;51.922;7.730;2023-04-30T03:05:47;143559.41;;;4.26;100.00
47530;BME280;33272;51.922;7.730;2023-04-30T03:08:16;143573.22;;;4.31;100.00
47530;BME280;33272;51.922;7.730;2023-04-30T03:10:43;143585.88;;;4.36;100.00
47530;BME280;33272;51.922;7.730;2023-04-30T03:13:11;143599.75;;;4.42;100.00
47530;BME280;33272;51.922;7.730;2023-04-30T03:15:38;143612.31;;;4.47;100.00
47530;BME280;33272;51.922;7.730;2023-04-30T03:18:05;143621.13;;;4.51;100.00
47530;BME280;33272;51.922;7.730;2023-04-30T03:20:32;143626.19;;;4.53;100.00
47530;BME280;33272;51.922;7.730;2023-04-30T03:22:59;143628.69;;;4.54;100.00
47530;BME280;33272;51.922;7.730;2023-04-30T03:25:28;143621.13;;;4.51;100.00
47530;BME280;33272;51.922;7.730;2023-04-30T03:27:55;143617.38;;;4.49;100.00
47530;BME280;33272;51.922;7.730;2023-04-30T03:30:22;143609.81;;;4.46;100.00
47530;BME280;33272;51.922;7.730;2023-04-30T03:32:49;143599.75;;;4.42;100.00
47530;BME280;33272;51.922;7.730;2023-04-30T03:35:16;143595.94;;;4.40;100.00
47530;BME280;33272;51.922;7.730;2023-04-30T03:37:43;143589.63;;;4.38;100.00
47530;BME280;33272;51.922;7.730;2023-04-30T03:40:11;143584.59;;;4.36;100.00
47530;BME280;33272;51.922;7.730;2023-04-30T03:42:40;143579.53;;;4.34;100.00
47530;BME280;33272;51.922;7.730;2023-04-30T03:45:08;143582.06;;;4.35;100.00
47530;BME280;33272;51.922;7.730;2023-04-30T03:47:35;143582.06;;;4.35;100.00
47530;BME280;33272;51.922;7.730;2023-04-30T03:50:02;143578.28;;;4.33;100.00
47530;BME280;33272;51.922;7.730;2023-04-30T03:52:29;143575.78;;;4.32;100.00
47530;BME280;33272;51.922;7.730;2023-04-30T03:54:58;143570.72;;;4.30;100.00
47530;BME280;33272;51.922;7.730;2023-04-30T03:57:25;143574.50;;;4.32;100.00
47530;BME280;33272;51.922;7.730;2023-04-30T03:59:53;143583.34;;;4.35;100.00
47530;BME280;33272;51.922;7.730;2023-04-30T04:02:21;143593.44;;;4.39;100.00
47530;BME280;33272;51.922;7.730;2023-04-30T04:04:49;143590.91;;;4.38;100.00
47530;BME280;33272;51.922;7.730;2023-04-30T04:07:16;143590.91;;;4.38;100.00
47530;BME280;33272;51.922;7.730;2023-04-30T04:09:44;143593.44;;;4.39;100.00
47530;BME280;33272;51.922;7.730;2023-04-30T04:12:11;143593.44;;;4.39;100.00
47530;BME280;33272;51.922;7.730;2023-04-30T04:14:38;143593.44;;;4.39;100.00
47530;BME280;33272;51.922;7.730;2023-04-30T04:17:07;143599.75;;;4.42;100.00
47530;BME280;33272;51.922;7.730;2023-04-30T04:19:34;143604.75;;;4.44;100.00
47530;BME280;33272;51.922;7.730;2023-04-30T04:22:01;143609.81;;;4.46;100.00
47530;BME280;33272;51.922;7.730;2023-04-30T04:24:29;143618.63;;;4.50;100.00
47530;BME280;33272;51.922;7.730;2023-04-30T04:26:56;143636.25;;;4.57;100.00
47530;BME280;33272;51.922;7.730;2023-04-30T04:29:23;143656.47;;;4.65;100.00
47530;BME280;33272;51.922;7.730;2023-04-30T04:31:50;143671.59;;;4.71;100.00
47530;BME280;33272;51.922;7.730;2023-04-30T04:34:18;143689.22;;;4.78;100.00
47530;BME280;33272;51.922;7.730;2023-04-30T04:36:45;143693.03;;;4.80;100.00
47530;BME280;33272;51.922;7.730;2023-04-30T04:39:12;143699.34;;;4.82;100.00
47530;BME280;33272;51.922;7.730;2023-04-30T04:41:39;143703.13;;;4.84;100.00
47530;BME280;33272;51.922;7.730;2023-04-30T04:44:07;143719.50;;;4.91;100.00
47530;BME280;33272;51.922;7.730;2023-04-30T04:46:34;143742.22;;;5.00;100.00
47530;BME280;33272;51.922;7.730;2023-04-30T04:49:03;143780.06;;;5.15;100.00
47530;BME280;33272;51.922;7.730;2023-04-30T04:51:31;143833.06;;;5.37;100.00
47530;BME280;33272;51.922;7.730;2023-04-30T04:53:58;143872.16;;;5.52;100.00
47530;BME280;33272;51.922;7.730;2023-04-30T04:56:25;143899.91;;;5.64;100.00
47530;BME280;33272;51.922;7.730;2023-04-30T04:58:52;143920.13;;;5.72;100.00
47530;BME280;33272;51.922;7.730;2023-04-30T05:01:19;143937.78;;;5.79;100.00
47530;BME280;33272;51.922;7.730;2023-04-30T05:03:46;143954.19;;;5.86;100.00
47530;BME280;33272;51.922;7.730;2023-04-30T05:06:13;143973.19;;;5.93;100.00
47530;BME280;33272;51.922;7.730;2023-04-30T05:08:42;143989.59;;;6.00;100.00
47530;BME280;33272;51.922;7.730;2023-04-30T05:11:09;144007.25;;;6.07;100.00
47530;BME280;33272;51.922;7.730;2023-04-30T05:13:36;144027.47;;;6.15;100.00
47530;BME280;33272;51.922;7.730;2023-04-30T05:16:03;144047.66;;;6.23;100.00
47530;BME280;33272;51.922;7.730;2023-04-30T05:18:30;144080.47;;;6.37;100.00
47530;BME280;33272;51.922;7.730;2023-04-30T05:20:58;144128.50;;;6.56;100.00
47530;BME280;33272;51.922;7.730;2023-04-30T05:23:25;144196.69;;;6.84;100.00
47530;BME280;33272;51.922;7.730;2023-04-30T05:25:54;144296.53;;;7.24;100.00
47530;BME280;33272;51.922;7.730;2023-04-30T05:28:21;144388.81;;;7.61;100.00
47530;BME280;33272;51.922;7.730;2023-04-30T05:30:48;144575.97;;;8.37;100.00
47530;BME280;33272;51.922;7.730;2023-04-30T05:33:15;144759.53;;;9.11;100.00
47530;BME280;33272;51.922;7.730;2023-04-30T05:35:42;144935.50;;;9.82;100.00
47530;BME280;33272;51.922;7.730;2023-04-30T05:38:09;145086.31;;;10.43;100.00
47530;BME280;33272;51.922;7.730;2023-04-30T05:40:36;145213.09;;;10.94;100.00
47530;BME280;33272;51.922;7.730;2023-04-30T05:43:04;145331.03;;;11.42;100.00
47530;BME280;33272;51.922;7.730;2023-04-30T05:45:32;145438.88;;;11.85;100.00
47530;BME280;33272;51.922;7.730;2023-04-30T05:47:59;145517.53;;;12.17;100.00
47530;BME280;33272;51.922;7.730;2023-04-30T05:50:27;145572.13;;;12.39;100.00
47530;BME280;33272;51.922;7.730;2023-04-30T05:52:54;145611.47;;;12.55;100.00
47530;BME280;33272;51.922;7.730;2023-04-30T05:55:21;145657.19;;;12.73;100.00
47530;BME280;33272;51.922;7.730;2023-04-30T05:57:48;145709.25;;;12.94;100.00
47530;BME280;33272;51.922;7.730;2023-04-30T06:00:17;145716.88;;;12.97;100.00
47530;BME280;33272;51.922;7.730;2023-04-30T06:02:44;145743.53;;;13.08;100.00
47530;BME280;33272;51.922;7.730;2023-04-30T06:05:11;145749.88;;;13.10;100.00
47530;BME280;33272;51.922;7.730;2023-04-30T06:07:38;145724.50;;;13.00;100.00
47530;BME280;33272;51.922;7.730;2023-04-30T06:10:06;145739.75;;;13.06;100.00
47530;BME280;33272;51.922;7.730;2023-04-30T06:12:34;145739.75;;;13.06;100.00
47530;BME280;33272;51.922;7.730;2023-04-30T06:15:01;145748.63;;;13.10;100.00
47530;BME280;33272;51.922;7.730;2023-04-30T06:17:29;145771.50;;;13.19;100.00
47530;BME280;33272;51.922;7.730;2023-04-30T06:19:56;145793.16;;;13.28;100.00
47530;BME280;33272;51.922;7.730;2023-04-30T06:22:27;145827.44;;;13.41;100.00
47530;BME280;33272;51.922;7.730;2023-04-30T06:24:54;145831.25;;;13.43;100.00
47530;BME280;33272;51.922;7.730;2023-04-30T06:27:23;145860.44;;;13.55;100.00
47530;BME280;33272;51.922;7.730;2023-04-30T06:29:52;145852.81;;;13.52;100.00
47530;BME280;33272;51.922;7.730;2023-04-30T06:32:19;145869.34;;;13.58;100.00
47530;BME280;33272;51.922;7.730;2023-04-30T06:34:48;145860.44;;;13.55;100.00
47530;BME280;33272;51.922;7.730;2023-04-30T06:37:15;145864.28;;;13.56;100.00
47530;BME280;33272;51.922;7.730;2023-04-30T06:39:42;145802.03;;;13.31;100.00
47530;BME280;33272;51.922;7.730;2023-04-30T06:42:09;145756.25;;;13.13;100.00
47530;BME280;33272;51.922;7.730;2023-04-30T06:44:36;145701.63;;;12.91;100.00
47530;BME280;33272;51.922;7.730;2023-04-30T06:47:03;145673.69;;;12.80;100.00
47530;BME280;33272;51.922;7.730;2023-04-30T06:49:30;145626.72;;;12.61;100.00
47530;BME280;33272;51.922;7.730;2023-04-30T06:51:58;145591.19;;;12.46;100.00
47530;BME280;33272;51.922;7.730;2023-04-30T06:54:26;145563.25;;;12.35;100.00
47530;BME280;33272;51.922;7.730;2023-04-30T06:56:53;145527.72;;;12.21;100.00
47530;BME280;33272;51.922;7.730;2023-04-30T06:59:20;145521.38;;;12.18;100.00
47530;BME280;33272;51.922;7.730;2023-04-30T07:01:47;145522.63;;;12.19;100.00
47530;BME280;33272;51.922;7.730;2023-04-30T07:04:14;145522.63;;;12.19;100.00
47530;BME280;33272;51.922;7.730;2023-04-30T07:06:41;145480.78;;;12.02;100.00
47530;BME280;33272;51.922;7.730;2023-04-30T07:09:09;145488.38;;;12.05;100.00
47530;BME280;33272;51.922;7.730;2023-04-30T07:11:37;145485.81;;;12.04;100.00
47530;BME280;33272;51.922;7.730;2023-04-30T07:14:04;145478.19;;;12.01;100.00
47530;BME280;33272;51.922;7.730;2023-04-30T07:16:31;145479.50;;;12.01;100.00
47530;BME280;33272;51.922;7.730;2023-04-30T07:18:58;145478.19;;;12.01;100.00
47530;BME280;33272;51.922;7.730;2023-04-30T07:21:25;145501.03;;;12.10;100.00
47530;BME280;33272;51.922;7.730;2023-04-30T07:23:52;145509.97;;;12.14;100.00
47530;BME280;33272;51.922;7.730;2023-04-30T07:26:21;145515.00;;;12.16;100.00
47530;BME280;33272;51.922;7.730;2023-04-30T07:28:49;145513.75;;;12.15;100.00
47530;BME280;33272;51.922;7.730;2023-04-30T07:31:16;145517.53;;;12.17;100.00
47530;BME280;33272;51.922;7.730;2023-04-30T07:33:44;145516.28;;;12.16;100.00
47530;BME280;33272;51.922;7.730;2023-04-30T07:36:10;145536.59;;;12.24;100.00
47530;BME280;33272;51.922;7.730;2023-04-30T07:38:38;145560.72;;;12.34;100.00
47530;BME280;33272;51.922;7.730;2023-04-30T07:41:05;145594.97;;;12.48;100.00
47530;BME280;33272;51.922;7.730;2023-04-30T07:43:34;145608.94;;;12.53;100.00
47530;BME280;33272;51.922;7.730;2023-04-30T07:46:02;145629.28;;;12.62;100.00
47530;BME280;33272;51.922;7.730;2023-04-30T07:48:29;145638.16;;;12.65;100.00
47530;BME280;33272;51.922;7.730;2023-04-30T07:50:56;145673.69;;;12.80;100.00
47530;BME280;33272;51.922;7.730;2023-04-30T07:53:23;145697.84;;;12.89;100.00
47530;BME280;33272;51.922;7.730;2023-04-30T07:55:50;145713.03;;;12.95;100.00
47530;BME280;33272;51.922;7.730;2023-04-30T07:58:17;145721.97;;;12.99;100.00
47530;BME280;33272;51.922;7.730;2023-04-30T08:00:45;145738.47;;;13.06;100.00
47530;BME280;33272;51.922;7.730;2023-04-30T08:03:13;145746.09;;;13.09;100.00
47530;BME280;33272;51.922;7.730;2023-04-30T08:05:40;145747.38;;;13.09;100.00
47530;BME280;33272;51.922;7.730;2023-04-30T08:08:07;145727.03;;;13.01;99.85
47530;BME280;33272;51.922;7.730;2023-04-30T08:10:34;145729.59;;;13.02;99.76
47530;BME280;33272;51.922;7.730;2023-04-30T08:13:03;145734.66;;;13.04;100.00
47530;BME280;33272;51.922;7.730;2023-04-30T08:15:32;145727.03;;;13.01;99.34
47530;BME280;33272;51.922;7.730;2023-04-30T08:18:02;145725.75;;;13.01;99.32
47530;BME280;33272;51.922;7.730;2023-04-30T08:20:30;145724.50;;;13.00;99.62
47530;BME280;33272;51.922;7.730;2023-04-30T08:22:57;145720.66;;;12.98;99.63
47530;BME280;33272;51.922;7.730;2023-04-30T08:25:24;145727.03;;;13.01;98.94
47530;BME280;33272;51.922;7.730;2023-04-30T08:27:51;145742.28;;;13.07;99.03
47530;BME280;33272;51.922;7.730;2023-04-30T08:30:18;145765.13;;;13.16;98.52
47530;BME280;33272;51.922;7.730;2023-04-30T08:32:45;145791.84;;;13.27;98.80
47530;BME280;33272;51.922;7.730;2023-04-30T08:35:13;145807.09;;;13.33;98.29
47530;BME280;33272;51.922;7.730;2023-04-30T08:37:41;145795.66;;;13.29;97.64
47530;BME280;33272;51.922;7.730;2023-04-30T08:40:09;145786.78;;;13.25;97.42
47530;BME280;33272;51.922;7.730;2023-04-30T08:42:38;145777.84;;;13.21;98.13
47530;BME280;33272;51.922;7.730;2023-04-30T08:45:08;145794.41;;;13.28;97.54
47530;BME280;33272;51.922;7.730;2023-04-30T08:47:37;145803.28;;;13.32;97.84
47530;BME280;33272;51.922;7.730;2023-04-30T08:50:06;145816.03;;;13.37;97.65
47530;BME280;33272;51.922;7.730;2023-04-30T08:52:36;145836.31;;;13.45;96.98
47530;BME280;33272;51.922;7.730;2023-04-30T08:55:07;145866.81;;;13.57;97.08
47530;BME280;33272;51.922;7.730;2023-04-30T08:57:36;145878.28;;;13.62;96.95
47530;BME280;33272;51.922;7.730;2023-04-30T09:00:05;145883.31;;;13.64;97.49
47530;BME280;33272;51.922;7.730;2023-04-30T09:02:33;145878.28;;;13.62;96.88
47530;BME280;33272;51.922;7.730;2023-04-30T09:05:00;145897.31;;;13.70;97.74
47530;BME280;33272;51.922;7.730;2023-04-30T09:07:30;145904.94;;;13.73;96.15
47530;BME280;33272;51.922;7.730;2023-04-30T09:10:00;145902.41;;;13.72;95.37
47530;BME280;33272;51.922;7.730;2023-04-30T09:12:29;145907.47;;;13.74;95.97
47530;BME280;33272;51.922;7.730;2023-04-30T09:15:02;145945.59;;;13.89;96.73
47530;BME280;33272;51.922;7.730;2023-04-30T09:17:29;145964.69;;;13.97;96.22
47530;BME280;33272;51.922;7.730;2023-04-30T09:20:06;145979.91;;;14.03;93.93
47530;BME280;33272;51.922;7.730;2023-04-30T09:22:35;145971.00;;;13.99;95.31
47530;BME280;33272;51.922;7.730;2023-04-30T09:25:07;145985.00;;;14.05;95.08
47530;BME280;33272;51.922;7.730;2023-04-30T09:27:34;145977.38;;;14.02;94.90
47530;BME280;33272;51.922;7.730;2023-04-30T09:30:01;145950.69;;;13.91;95.07
47530;BME280;33272;51.922;7.730;2023-04-30T09:32:29;145945.59;;;13.89;96.08
47530;BME280;33272;51.922;7.730;2023-04-30T09:34:56;145971.00;;;13.99;95.85
47530;BME280;33272;51.922;7.730;2023-04-30T09:37:35;145977.38;;;14.02;94.57
47530;BME280;33272;51.922;7.730;2023-04-30T09:40:05;146014.25;;;14.17;94.86
47530;BME280;33272;51.922;7.730;2023-04-30T09:42:32;146028.22;;;14.22;94.33
47530;BME280;33272;51.922;7.730;2023-04-30T09:44:59;146032.03;;;14.24;94.61
47530;BME280;33272;51.922;7.730;2023-04-30T09:47:29;146046.03;;;14.29;93.86
47530;BME280;33272;51.922;7.730;2023-04-30T09:49:59;146044.75;;;14.29;93.28
47530;BME280;33272;51.922;7.730;2023-04-30T09:52:26;146044.75;;;14.29;92.88
47530;BME280;33272;51.922;7.730;2023-04-30T09:54:53;146043.50;;;14.28;92.83
47530;BME280;33272;51.922;7.730;2023-04-30T09:57:23;146037.13;;;14.26;92.50
47530;BME280;33272;51.922;7.730;2023-04-30T09:59:52;146021.88;;;14.20;91.49
47530;BME280;33272;51.922;7.730;2023-04-30T10:02:19;146043.50;;;14.28;92.30
47530;BME280;33272;51.922;7.730;2023-04-30T10:04:54;146053.66;;;14.32;91.23
47530;BME280;33272;51.922;7.730;2023-04-30T10:07:24;146081.59;;;14.44;92.29
47530;BME280;33272;51.922;7.730;2023-04-30T10:09:59;146112.16;;;14.56;91.39
47530;BME280;33272;51.922;7.730;2023-04-30T10:12:42;146127.44;;;14.62;90.72
47530;BME280;33272;51.922;7.730;2023-04-30T10:15:14;146143.94;;;14.69;90.69
47530;BME280;33272;51.922;7.730;2023-04-30T10:17:45;146142.69;;;14.68;89.98
47530;BME280;33272;51.922;7.730;2023-04-30T10:20:13;146165.59;;;14.77;90.43
47530;BME280;33272;51.922;7.730;2023-04-30T10:22:41;146177.06;;;14.82;89.82
47530;BME280;33272;51.922;7.730;2023-04-30T10:25:09;146187.22;;;14.86;89.91
47530;BME280;33272;51.922;7.730;2023-04-30T10:27:39;146219.00;;;14.99;89.26
47530;BME280;33272;51.922;7.730;2023-04-30T10:30:09;146235.53;;;15.05;88.99
47530;BME280;33272;51.922;7.730;2023-04-30T10:32:42;146253.34;;;15.13;87.82
47530;BME280;33272;51.922;7.730;2023-04-30T10:35:18;146252.06;;;15.12;87.46
47530;BME280;33272;51.922;7.730;2023-04-30T10:37:50;146263.56;;;15.17;87.25
47530;BME280;33272;51.922;7.730;2023-04-30T10:40:19;146283.88;;;15.25;88.00
47530;BME280;33272;51.922;7.730;2023-04-30T10:42:48;146290.25;;;15.27;85.40
47530;BME280;33272;51.922;7.730;2023-04-30T10:45:16;146306.78;;;15.34;86.23
47530;BME280;33272;51.922;7.730;2023-04-30T10:47:44;146309.31;;;15.35;85.84
47530;BME280;33272;51.922;7.730;2023-04-30T10:50:11;146320.78;;;15.40;85.55
47530;BME280;33272;51.922;7.730;2023-04-30T10:52:39;146338.59;;;15.47;85.43
47530;BME280;33272;51.922;7.730;2023-04-30T10:55:07;146336.06;;;15.46;85.52
47530;BME280;33272;51.922;7.730;2023-04-30T10:57:40;146329.69;;;15.43;83.50
47530;BME280;33272;51.922;7.730;2023-04-30T11:00:24;146339.84;;;15.47;83.99
47530;BME280;33272;51.922;7.730;2023-04-30T11:02:56;146350.06;;;15.51;85.70
47530;BME280;33272;51.922;7.730;2023-04-30T11:05:35;146362.75;;;15.57;83.87
47530;BME280;33272;51.922;7.730;2023-04-30T11:08:03;146375.50;;;15.62;84.32
47530;BME280;33272;51.922;7.730;2023-04-30T11:10:34;146392.09;;;15.68;84.21
47530;BME280;33272;51.922;7.730;2023-04-30T11:13:05;146412.47;;;15.77;84.40
47530;BME280;33272;51.922;7.730;2023-04-30T11:15:41;146429.03;;;15.83;84.38
47530;BME280;33272;51.922;7.730;2023-04-30T11:18:12;146463.38;;;15.97;84.11
47530;BME280;33272;51.922;7.730;2023-04-30T11:20:40;146476.13;;;16.02;83.83
47530;BME280;33272;51.922;7.730;2023-04-30T11:23:15;146483.75;;;16.05;83.44
47530;BME280;33272;51.922;7.730;2023-04-30T11:25:44;146505.38;;;16.14;84.52
47530;BME280;33272;51.922;7.730;2023-04-30T11:28:14;146539.78;;;16.28;84.25
47530;BME280;33272;51.922;7.730;2023-04-30T11:30:51;146563.97;;;16.37;83.14
47530;BME280;33272;51.922;7.730;2023-04-30T11:33:19;146581.78;;;16.44;83.88
47530;BME280;33272;51.922;7.730;2023-04-30T11:35:47;146603.44;;;16.53;83.47
47530;BME280;33272;51.922;7.730;2023-04-30T11:38:21;146594.53;;;16.50;82.26
47530;BME280;33272;51.922;7.730;2023-04-30T11:40:51;146600.91;;;16.52;83.13
47530;BME280;33272;51.922;7.730;2023-04-30T11:43:23;146583.03;;;16.45;82.01
47530;BME280;33272;51.922;7.730;2023-04-30T11:46:06;146593.28;;;16.49;82.20
47530;BME280;33272;51.922;7.730;2023-04-30T11:48:35;146603.44;;;16.53;82.23
47530;BME280;33272;51.922;7.730;2023-04-30T11:51:04;146611.09;;;16.56;81.86
47530;BME280;33272;51.922;7.730;2023-04-30T11:53:32;146623.84;;;16.61;81.68
47530;BME280;33272;51.922;7.730;2023-04-30T11:56:02;146648.03;;;16.71;81.93
47530;BME280;33272;51.922;7.730;2023-04-30T11:58:33;146701.53;;;16.92;81.81
47530;BME280;33272;51.922;7.730;2023-04-30T12:01:04;146681.19;;;16.84;80.09
47530;BME280;33272;51.922;7.730;2023-04-30T12:03:38;146691.38;;;16.88;81.00
47530;BME280;33272;51.922;7.730;2023-04-30T12:06:09;146710.50;;;16.96;79.96
47530;BME280;33272;51.922;7.730;2023-04-30T12:08:36;146725.75;;;17.02;80.22
47530;BME280;33272;51.922;7.730;2023-04-30T12:11:03;146724.47;;;17.02;79.81
47530;BME280;33272;51.922;7.730;2023-04-30T12:13:32;146715.56;;;16.98;79.55
47530;BME280;33272;51.922;7.730;2023-04-30T12:15:59;146730.88;;;17.04;79.58
47530;BME280;33272;51.922;7.730;2023-04-30T12:18:29;146752.53;;;17.13;79.59
47530;BME280;33272;51.922;7.730;2023-04-30T12:20:58;146785.66;;;17.26;79.58
47530;BME280;33272;51.922;7.730;2023-04-30T12:23:25;146799.69;;;17.32;79.02
47530;BME280;33272;51.922;7.730;2023-04-30T12:25:52;146818.78;;;17.40;79.03
47530;BME280;33272;51.922;7.730;2023-04-30T12:28:22;146817.50;;;17.39;77.82
47530;BME280;33272;51.922;7.730;2023-04-30T12:30:51;146818.78;;;17.40;77.63
47530;BME280;33272;51.922;7.730;2023-04-30T12:33:19;146818.78;;;17.40;77.54
47530;BME280;33272;51.922;7.730;2023-04-30T12:35:47;146822.63;;;17.41;77.63
47530;BME280;33272;51.922;7.730;2023-04-30T12:38:16;146823.88;;;17.42;76.86
47530;BME280;33272;51.922;7.730;2023-04-30T12:40:46;146816.25;;;17.38;76.08
47530;BME280;33272;51.922;7.730;2023-04-30T12:43:15;146822.63;;;17.41;75.03
47530;BME280;33272;51.922;7.730;2023-04-30T12:45:48;146841.72;;;17.49;72.73
47530;BME280;33272;51.922;7.730;2023-04-30T12:48:18;146846.84;;;17.51;72.01
47530;BME280;33272;51.922;7.730;2023-04-30T12:50:52;146846.84;;;17.51;69.76
47530;BME280;33272;51.922;7.730;2023-04-30T12:53:20;146859.59;;;17.56;71.88
47530;BME280;33272;51.922;7.730;2023-04-30T12:56:06;146853.22;;;17.53;68.92
47530;BME280;33272;51.922;7.730;2023-04-30T12:58:34;146864.66;;;17.58;70.72